createdAt,value
2022-10-30T00:02:03.863Z,12.80
2022-10-30T00:04:34.221Z,12.70
2022-10-30T00:07:19.320Z,12.70
2022-10-30T00:10:11.232Z,12.52
2022-10-30T00:13:09.838Z,12.48
2022-10-30T00:15:54.338Z,12.50
2022-10-30T00:18:52.279Z,12.40
2022-10-30T00:21:26.879Z,12.40
2022-10-30T00:23:56.218Z,12.40
2022-10-30T00:26:42.175Z,12.32
2022-10-30T00:29:17.112Z,12.30
2022-10-30T00:31:54.189Z,12.30
2022-10-30T00:34:40.462Z,12.30
2022-10-30T00:37:22.081Z,12.30
2022-10-30T00:39:57.398Z,12.22
2022-10-30T00:42:39.352Z,12.20
2022-10-30T00:45:23.237Z,12.20
2022-10-30T00:48:13.149Z,12.30
2022-10-30T00:50:45.649Z,12.32
2022-10-30T00:53:32.219Z,12.34
2022-10-30T00:56:07.058Z,12.30
2022-10-30T00:58:46.598Z,12.30
2022-10-30T01:01:27.622Z,12.30
2022-10-30T01:04:03.358Z,12.22
2022-10-30T01:06:48.617Z,12.20
2022-10-30T01:09:37.177Z,12.10
2022-10-30T01:12:15.179Z,12.10
2022-10-30T01:15:06.868Z,12.08
2022-10-30T01:17:54.364Z,12.10
2022-10-30T01:21:39.098Z,12.10
2022-10-30T01:24:40.418Z,12.00
2022-10-30T01:27:59.780Z,11.90
2022-10-30T01:30:49.079Z,11.90
2022-10-30T01:33:41.408Z,11.90
2022-10-30T01:36:40.296Z,11.90
2022-10-30T01:39:41.365Z,11.90
2022-10-30T01:42:52.809Z,11.80
2022-10-30T01:45:59.758Z,11.80
2022-10-30T01:49:13.876Z,11.80
2022-10-30T01:52:39.417Z,11.70
2022-10-30T01:55:56.618Z,11.70
2022-10-30T01:58:58.959Z,11.70
2022-10-30T02:01:51.422Z,11.70
2022-10-30T02:04:43.997Z,11.60
2022-10-30T02:07:41.959Z,11.50
2022-10-30T02:10:21.417Z,11.40
2022-10-30T02:13:12.978Z,11.34
2022-10-30T02:15:50.697Z,11.30
2022-10-30T02:18:25.478Z,11.22
2022-10-30T02:20:59.017Z,11.20
2022-10-30T02:23:31.552Z,11.26
2022-10-30T02:26:21.766Z,11.20
2022-10-30T02:28:51.258Z,11.20
2022-10-30T02:31:33.521Z,11.20
2022-10-30T02:34:13.564Z,11.18
2022-10-30T02:36:43.164Z,11.10
2022-10-30T02:39:12.521Z,11.10
2022-10-30T02:42:06.161Z,11.10
2022-10-30T02:44:43.158Z,11.10
2022-10-30T02:47:30.262Z,11.10
2022-10-30T02:50:07.963Z,11.04
2022-10-30T02:52:59.613Z,11.10
2022-10-30T02:55:34.873Z,11.06
2022-10-30T02:58:32.195Z,11.00
2022-10-30T03:01:27.867Z,10.92
2022-10-30T03:04:08.135Z,10.90
2022-10-30T03:06:42.034Z,10.90
2022-10-30T03:09:18.054Z,10.94
2022-10-30T03:11:53.633Z,10.90
2022-10-30T03:14:32.025Z,10.86
2022-10-30T03:17:08.075Z,10.90
2022-10-30T03:19:37.405Z,10.90
2022-10-30T03:22:15.485Z,10.90
2022-10-30T03:24:44.292Z,10.90
2022-10-30T03:27:34.972Z,10.90
2022-10-30T03:30:10.074Z,10.96
2022-10-30T03:33:14.513Z,11.00
2022-10-30T03:35:58.021Z,11.10
2022-10-30T03:38:33.442Z,11.10
2022-10-30T03:41:13.742Z,11.10
2022-10-30T03:43:57.092Z,11.10
2022-10-30T03:46:39.252Z,11.08
2022-10-30T03:49:28.970Z,11.02
2022-10-30T03:52:26.443Z,11.10
2022-10-30T03:55:10.113Z,11.10
2022-10-30T03:57:56.553Z,11.10
2022-10-30T04:00:30.265Z,11.10
2022-10-30T04:03:12.515Z,11.10
2022-10-30T04:06:09.814Z,11.10
2022-10-30T04:08:44.754Z,11.10
2022-10-30T04:11:25.510Z,11.10
2022-10-30T04:14:19.036Z,11.00
2022-10-30T04:17:23.073Z,11.00
2022-10-30T04:20:02.822Z,10.88
2022-10-30T04:22:59.002Z,10.80
2022-10-30T04:26:36.413Z,10.80
2022-10-30T04:29:05.392Z,10.76
2022-10-30T04:31:35.297Z,10.70
2022-10-30T04:34:10.192Z,10.70
2022-10-30T04:36:45.395Z,10.70
2022-10-30T04:39:17.763Z,10.70
2022-10-30T04:41:56.354Z,10.70
2022-10-30T04:44:33.162Z,10.60
2022-10-30T04:47:22.377Z,10.56
2022-10-30T04:50:44.721Z,10.50
2022-10-30T04:53:37.543Z,10.50
2022-10-30T04:56:23.753Z,10.50
2022-10-30T04:59:00.002Z,10.44
2022-10-30T05:01:34.397Z,10.30
2022-10-30T05:04:14.240Z,10.20
2022-10-30T05:07:18.473Z,10.20
2022-10-30T05:10:20.733Z,10.10
2022-10-30T05:13:00.562Z,10.10
2022-10-30T05:15:51.675Z,10.00
2022-10-30T05:18:33.332Z,10.00
2022-10-30T05:21:06.867Z,10.00
2022-10-30T05:23:42.853Z,10.00
2022-10-30T05:26:11.542Z,10.00
2022-10-30T05:29:02.594Z,10.00
2022-10-30T05:31:54.953Z,9.96
2022-10-30T05:34:28.894Z,9.90
2022-10-30T05:37:20.932Z,9.90
2022-10-30T05:40:19.733Z,9.80
2022-10-30T05:42:53.572Z,9.80
2022-10-30T05:45:30.454Z,9.80
2022-10-30T05:48:19.449Z,9.80
2022-10-30T05:50:57.461Z,9.80
2022-10-30T05:53:37.822Z,9.80
2022-10-30T05:56:06.924Z,9.80
2022-10-30T05:58:43.212Z,9.80
2022-10-30T06:01:30.064Z,9.90
2022-10-30T06:03:58.743Z,9.90
2022-10-30T06:06:44.854Z,10.00
2022-10-30T06:09:13.315Z,10.00
2022-10-30T06:11:42.113Z,10.00
2022-10-30T06:14:10.722Z,10.00
2022-10-30T06:16:39.615Z,10.00
2022-10-30T06:19:08.112Z,10.10
2022-10-30T06:21:36.793Z,10.10
2022-10-30T06:24:06.139Z,10.20
2022-10-30T06:26:51.693Z,10.30
2022-10-30T06:29:20.515Z,10.30
2022-10-30T06:31:49.274Z,10.30
2022-10-30T06:34:17.921Z,10.30
2022-10-30T06:37:04.027Z,10.30
2022-10-30T06:39:32.756Z,10.30
2022-10-30T06:42:01.493Z,10.40
2022-10-30T06:44:30.233Z,10.50
2022-10-30T06:46:58.827Z,10.60
2022-10-30T06:49:44.832Z,10.70
2022-10-30T06:52:30.714Z,10.90
2022-10-30T06:54:59.415Z,11.08
2022-10-30T06:57:28.085Z,11.28
2022-10-30T07:00:14.223Z,11.40
2022-10-30T07:02:43.092Z,11.60
2022-10-30T07:05:11.863Z,11.76
2022-10-30T07:07:58.997Z,11.90
2022-10-30T07:10:44.718Z,11.90
2022-10-30T07:13:30.373Z,11.90
2022-10-30T07:16:00.158Z,12.00
2022-10-30T07:18:28.793Z,12.00
2022-10-30T07:20:57.673Z,12.02
2022-10-30T07:23:26.273Z,12.10
2022-10-30T07:25:57.290Z,12.08
2022-10-30T07:28:29.673Z,12.04
2022-10-30T07:31:01.243Z,12.10
2022-10-30T07:33:29.992Z,12.10
2022-10-30T07:36:02.432Z,12.20
2022-10-30T07:38:52.882Z,12.30
2022-10-30T07:41:22.263Z,12.40
2022-10-30T07:43:50.754Z,12.52
2022-10-30T07:46:19.201Z,12.62
2022-10-30T07:49:05.285Z,12.80
2022-10-30T07:51:34.373Z,12.86
2022-10-30T07:54:02.918Z,13.00
2022-10-30T07:56:31.573Z,13.10
2022-10-30T07:59:00.103Z,13.20
2022-10-30T08:01:28.934Z,13.40
2022-10-30T08:03:57.450Z,13.60
2022-10-30T08:06:27.249Z,13.80
2022-10-30T08:08:56.072Z,13.96
2022-10-30T08:11:24.691Z,14.10
2022-10-30T08:14:10.721Z,14.30
2022-10-30T08:16:39.590Z,14.48
2022-10-30T08:19:08.117Z,14.60
2022-10-30T08:21:36.792Z,14.80
2022-10-30T08:24:22.540Z,15.00
2022-10-30T08:26:54.170Z,15.10
2022-10-30T08:29:22.823Z,15.20
2022-10-30T08:31:51.853Z,15.30
2022-10-30T08:34:20.680Z,15.30
2022-10-30T08:36:51.581Z,15.38
2022-10-30T08:39:21.079Z,15.40
2022-10-30T08:41:49.792Z,15.40
2022-10-30T08:44:18.370Z,15.40
2022-10-30T08:47:04.555Z,15.50
2022-10-30T08:49:33.070Z,15.60
2022-10-30T08:52:19.071Z,15.70
2022-10-30T08:54:47.561Z,15.80
2022-10-30T08:57:16.173Z,15.86
2022-10-30T09:00:02.206Z,16.00
2022-10-30T09:02:31.008Z,16.10
2022-10-30T09:04:59.702Z,16.22
2022-10-30T09:07:28.842Z,16.30
2022-10-30T09:09:57.752Z,16.40
2022-10-30T09:12:26.453Z,16.40
2022-10-30T09:14:54.951Z,16.50
2022-10-30T09:17:32.394Z,16.60
2022-10-30T09:20:17.992Z,16.70
2022-10-30T09:22:46.634Z,16.80
2022-10-30T09:25:15.414Z,16.86
2022-10-30T09:27:44.153Z,17.00
2022-10-30T09:30:14.466Z,17.10
2022-10-30T09:33:03.312Z,17.22
2022-10-30T09:35:33.353Z,17.32
2022-10-30T09:38:02.418Z,17.40
2022-10-30T09:41:47.135Z,17.46
2022-10-30T09:44:41.472Z,17.52
2022-10-30T09:47:39.452Z,17.62
2022-10-30T09:50:26.552Z,17.70
2022-10-30T09:53:34.127Z,17.80
2022-10-30T09:56:30.896Z,18.00
2022-10-30T09:59:39.012Z,18.12
2022-10-30T10:02:38.759Z,18.30
2022-10-30T10:05:38.552Z,18.40
2022-10-30T10:08:19.832Z,18.50
2022-10-30T10:11:17.376Z,18.60
2022-10-30T10:13:59.076Z,18.72
2022-10-30T10:16:37.092Z,18.90
2022-10-30T10:19:28.983Z,19.00
2022-10-30T10:22:20.731Z,19.20
2022-10-30T10:24:49.913Z,19.30
2022-10-30T10:28:01.094Z,19.40
2022-10-30T10:30:49.634Z,19.42
2022-10-30T10:33:58.734Z,19.50
2022-10-30T10:37:21.615Z,19.60
2022-10-30T10:40:41.553Z,19.70
2022-10-30T10:44:11.953Z,19.90
2022-10-30T10:47:50.672Z,20.00
2022-10-30T10:50:32.062Z,20.10
2022-10-30T10:53:33.955Z,20.10
2022-10-30T10:56:04.333Z,20.20
2022-10-30T10:58:57.752Z,20.22
2022-10-30T11:01:46.866Z,20.30
2022-10-30T11:04:40.815Z,20.50
2022-10-30T11:07:21.534Z,20.70
2022-10-30T11:09:54.694Z,20.88
2022-10-30T11:12:36.700Z,21.00
2022-10-30T11:15:58.602Z,21.10
2022-10-30T11:18:27.172Z,21.10
2022-10-30T11:21:14.072Z,21.10
2022-10-30T11:23:50.150Z,21.20
2022-10-30T11:26:18.993Z,21.20
2022-10-30T11:29:11.455Z,21.28
2022-10-30T11:32:05.161Z,21.40
2022-10-30T11:34:40.052Z,21.50
2022-10-30T11:37:33.859Z,21.40
2022-10-30T11:40:24.612Z,21.30
2022-10-30T11:43:01.080Z,21.30
2022-10-30T11:45:43.604Z,21.30
2022-10-30T11:48:32.133Z,21.30
2022-10-30T11:51:04.096Z,21.30
2022-10-30T11:53:49.593Z,21.30
2022-10-30T11:56:23.782Z,21.40
2022-10-30T11:59:00.114Z,21.50
2022-10-30T12:01:28.731Z,21.60
2022-10-30T12:04:12.902Z,21.50
2022-10-30T12:06:41.755Z,21.50
2022-10-30T12:09:22.976Z,21.50
2022-10-30T12:11:51.573Z,21.40
2022-10-30T12:14:24.791Z,21.40
2022-10-30T12:17:16.645Z,21.42
2022-10-30T12:20:05.213Z,21.50
2022-10-30T12:22:35.872Z,21.60
2022-10-30T12:25:18.813Z,21.60
2022-10-30T12:27:47.921Z,21.50
2022-10-30T12:30:21.354Z,21.54
2022-10-30T12:33:12.894Z,21.60
2022-10-30T12:35:51.553Z,21.70
2022-10-30T12:38:58.074Z,21.76
2022-10-30T12:41:43.499Z,21.80
2022-10-30T12:44:24.732Z,21.90
2022-10-30T12:47:20.852Z,21.90
2022-10-30T12:51:08.633Z,21.90
2022-10-30T12:54:20.752Z,21.80
2022-10-30T12:57:11.312Z,21.80
2022-10-30T12:59:54.733Z,21.74
2022-10-30T13:03:09.882Z,21.70
2022-10-30T13:05:47.809Z,21.60
2022-10-30T13:08:37.493Z,21.52
2022-10-30T13:11:22.473Z,21.50
2022-10-30T13:13:54.935Z,21.50
2022-10-30T13:16:40.817Z,21.50
2022-10-30T13:19:28.553Z,21.60
2022-10-30T13:22:07.792Z,21.60
2022-10-30T13:24:49.111Z,21.70
2022-10-30T13:27:42.233Z,21.80
2022-10-30T13:30:23.934Z,21.84
2022-10-30T13:33:13.993Z,21.90
2022-10-30T13:36:00.013Z,21.90
2022-10-30T13:39:00.856Z,21.90
2022-10-30T13:41:58.836Z,21.90
2022-10-30T13:44:56.212Z,21.90
2022-10-30T13:47:34.392Z,21.96
2022-10-30T13:50:17.732Z,21.96
2022-10-30T13:52:55.576Z,21.92
2022-10-30T13:55:44.072Z,21.90
2022-10-30T13:58:41.736Z,21.90
2022-10-30T14:01:56.301Z,21.90
2022-10-30T14:04:40.515Z,21.80
2022-10-30T14:07:23.833Z,21.70
2022-10-30T14:10:05.835Z,21.70
2022-10-30T14:13:13.802Z,21.60
2022-10-30T14:16:38.276Z,21.50
2022-10-30T14:19:16.600Z,21.40
2022-10-30T14:21:56.073Z,21.30
2022-10-30T14:24:35.296Z,21.24
2022-10-30T14:27:04.708Z,21.10
2022-10-30T14:29:52.034Z,21.00
2022-10-30T14:32:24.140Z,20.90
2022-10-30T14:34:53.475Z,20.80
2022-10-30T14:37:24.772Z,20.70
2022-10-30T14:39:56.592Z,20.60
2022-10-30T14:42:54.401Z,20.50
2022-10-30T14:45:59.282Z,20.40
2022-10-30T14:49:35.592Z,20.30
2022-10-30T14:52:31.353Z,20.02
2022-10-30T14:55:02.991Z,20.00
2022-10-30T14:57:55.175Z,19.80
2022-10-30T15:00:23.854Z,19.64
2022-10-30T15:03:20.666Z,19.50
2022-10-30T15:05:56.377Z,19.40
2022-10-30T15:08:40.539Z,19.20
2022-10-30T15:11:58.112Z,19.10
2022-10-30T15:14:53.031Z,18.98
2022-10-30T15:17:49.291Z,18.80
2022-10-30T15:20:32.833Z,18.60
2022-10-30T15:23:34.833Z,18.40
2022-10-30T15:26:24.735Z,18.22
2022-10-30T15:28:56.012Z,18.08
2022-10-30T15:31:42.345Z,17.90
2022-10-30T15:34:23.993Z,17.80
2022-10-30T15:37:14.124Z,17.68
2022-10-30T15:40:19.749Z,17.50
2022-10-30T15:42:51.351Z,17.40
2022-10-30T15:45:31.356Z,17.20
2022-10-30T15:48:26.758Z,17.00
2022-10-30T15:51:23.672Z,16.90
2022-10-30T15:54:19.572Z,16.74
2022-10-30T15:57:27.475Z,16.70
2022-10-30T16:00:08.424Z,16.60
2022-10-30T16:02:37.277Z,16.50
2022-10-30T16:05:24.814Z,16.40
2022-10-30T16:07:58.241Z,16.30
2022-10-30T16:10:33.155Z,16.18
2022-10-30T16:13:04.314Z,16.10
2022-10-30T16:15:40.713Z,16.00
2022-10-30T16:18:23.831Z,15.90
2022-10-30T16:21:03.252Z,15.90
2022-10-30T16:23:42.832Z,15.90
2022-10-30T16:26:36.323Z,15.80
2022-10-30T16:29:27.172Z,15.70
2022-10-30T16:31:56.213Z,15.70
2022-10-30T16:34:32.284Z,15.70
2022-10-30T16:37:05.939Z,15.70
2022-10-30T16:39:54.083Z,15.60
2022-10-30T16:42:26.613Z,15.60
2022-10-30T16:45:18.033Z,15.58
2022-10-30T16:51:06.563Z,15.50
2022-10-30T16:53:35.842Z,15.40
2022-10-30T16:56:29.346Z,15.30
2022-10-30T16:59:30.918Z,15.30
2022-10-30T17:02:08.219Z,15.30
2022-10-30T17:04:37.075Z,15.20
2022-10-30T17:07:27.676Z,15.20
2022-10-30T17:09:58.667Z,15.20
2022-10-30T17:12:30.014Z,15.10
2022-10-30T17:15:14.306Z,15.10
2022-10-30T17:18:16.271Z,15.00
2022-10-30T17:20:45.134Z,14.90
2022-10-30T17:23:31.355Z,14.80
2022-10-30T17:26:08.844Z,14.70
2022-10-30T17:28:39.534Z,14.70
2022-10-30T17:31:38.895Z,14.64
2022-10-30T17:34:21.007Z,14.60
2022-10-30T17:36:49.804Z,14.60
2022-10-30T17:39:18.844Z,14.60
2022-10-30T17:41:48.375Z,14.60
2022-10-30T17:44:22.154Z,14.66
2022-10-30T17:46:52.949Z,14.70
2022-10-30T17:49:30.933Z,14.72
2022-10-30T17:52:22.005Z,14.80
2022-10-30T17:54:51.235Z,14.78
2022-10-30T17:57:19.852Z,14.80
2022-10-30T17:59:49.293Z,14.70
2022-10-30T18:02:22.432Z,14.70
2022-10-30T18:04:52.953Z,14.60
2022-10-30T18:07:21.894Z,14.60
2022-10-30T18:09:50.772Z,14.60
2022-10-30T18:12:19.714Z,14.50
2022-10-30T18:14:48.745Z,14.50
2022-10-30T18:17:17.795Z,14.50
2022-10-30T18:19:46.544Z,14.40
2022-10-30T18:22:15.655Z,14.40
2022-10-30T18:25:01.732Z,14.30
2022-10-30T18:27:30.353Z,14.30
2022-10-30T18:29:58.978Z,14.30
2022-10-30T18:32:27.559Z,14.20
2022-10-30T18:34:56.594Z,14.20
2022-10-30T18:37:25.254Z,14.20
2022-10-30T18:39:53.775Z,14.16
2022-10-30T18:42:22.372Z,14.10
2022-10-30T18:44:50.974Z,14.00
2022-10-30T18:47:19.533Z,14.00
2022-10-30T18:49:48.235Z,13.90
2022-10-30T18:52:16.812Z,13.90
2022-10-30T18:55:02.571Z,13.90
2022-10-30T18:57:50.292Z,13.74
2022-10-30T19:00:58.065Z,13.60
2022-10-30T19:03:27.710Z,13.54
2022-10-30T19:05:56.534Z,13.50
2022-10-30T19:08:25.096Z,13.50
2022-10-30T19:11:24.009Z,13.50
2022-10-30T19:13:54.953Z,13.50
2022-10-30T19:18:38.653Z,13.40
2022-10-30T19:21:26.576Z,13.40
2022-10-30T19:23:56.853Z,13.30
2022-10-30T19:26:25.614Z,13.20
2022-10-30T19:28:54.612Z,13.10
2022-10-30T19:31:23.492Z,13.00
2022-10-30T19:33:56.158Z,12.90
2022-10-30T19:36:34.295Z,12.84
2022-10-30T19:39:18.214Z,12.80
2022-10-30T19:42:05.265Z,12.80
2022-10-30T19:44:34.053Z,12.70
2022-10-30T19:47:02.816Z,12.62
2022-10-30T19:49:32.114Z,12.60
2022-10-30T19:52:00.815Z,12.52
2022-10-30T19:54:46.909Z,12.50
2022-10-30T19:57:15.699Z,12.40
2022-10-30T19:59:44.464Z,12.30
2022-10-30T20:02:13.535Z,12.20
2022-10-30T20:04:42.463Z,12.20
2022-10-30T20:07:28.251Z,12.18
2022-10-30T20:09:57.162Z,12.10
2022-10-30T20:12:26.021Z,12.10
2022-10-30T20:14:54.853Z,12.10
2022-10-30T20:17:23.614Z,12.00
2022-10-30T20:19:52.525Z,12.00
2022-10-30T20:22:25.656Z,11.98
2022-10-30T20:24:56.834Z,11.90
2022-10-30T20:27:26.918Z,11.90
2022-10-30T20:29:55.650Z,11.90
2022-10-30T20:32:24.516Z,11.80
2022-10-30T20:34:53.336Z,11.80
2022-10-30T20:37:22.217Z,11.80
2022-10-30T20:39:51.450Z,11.80
2022-10-30T20:42:37.580Z,11.80
2022-10-30T20:45:07.669Z,11.80
2022-10-30T20:47:36.410Z,11.80
2022-10-30T20:50:05.672Z,11.70
2022-10-30T20:52:52.330Z,11.70
2022-10-30T20:55:21.643Z,11.70
2022-10-30T20:57:50.731Z,11.70
2022-10-30T21:00:37.271Z,11.72
2022-10-30T21:03:07.150Z,11.76
2022-10-30T21:06:02.170Z,11.80
2022-10-30T21:08:32.312Z,11.80
2022-10-30T21:11:06.969Z,11.80
2022-10-30T21:13:37.350Z,11.74
2022-10-30T21:16:09.120Z,11.70
2022-10-30T21:18:37.873Z,11.80
2022-10-30T21:21:11.910Z,11.70
2022-10-30T21:23:40.670Z,11.68
2022-10-30T21:26:12.200Z,11.60
2022-10-30T21:28:41.629Z,11.60
2022-10-30T21:31:14.150Z,11.60
2022-10-30T21:33:42.889Z,11.50
2022-10-30T21:36:29.299Z,11.50
2022-10-30T21:38:59.530Z,11.50
2022-10-30T21:41:46.011Z,11.40
2022-10-30T21:44:15.836Z,11.40
2022-10-30T21:46:44.710Z,11.40
2022-10-30T21:49:15.073Z,11.40
2022-10-30T21:52:01.075Z,11.50
2022-10-30T21:54:29.931Z,11.42
2022-10-30T21:56:58.763Z,11.40
2022-10-30T21:59:27.511Z,11.40
2022-10-30T22:01:56.438Z,11.30
2022-10-30T22:04:25.190Z,11.30
2022-10-30T22:06:53.871Z,11.30
2022-10-30T22:09:23.070Z,11.30
2022-10-30T22:11:51.665Z,11.40
2022-10-30T22:14:20.434Z,11.40
2022-10-30T22:16:49.521Z,11.40
2022-10-30T22:19:35.510Z,11.40
2022-10-30T22:22:04.312Z,11.40
2022-10-30T22:24:32.910Z,11.40
2022-10-30T22:27:01.691Z,11.44
2022-10-30T22:29:30.570Z,11.46
2022-10-30T22:32:16.991Z,11.48
2022-10-30T22:35:03.398Z,11.50
2022-10-30T22:37:49.572Z,11.50
2022-10-30T22:40:18.171Z,11.50
2022-10-30T22:42:46.850Z,11.40
2022-10-30T22:45:33.133Z,11.40
2022-10-30T22:48:19.320Z,11.40
2022-10-30T22:51:13.421Z,11.40
2022-10-30T22:53:46.881Z,11.30
2022-10-30T22:56:21.981Z,11.28
2022-10-30T22:59:18.300Z,11.20
2022-10-30T23:01:53.679Z,11.20
2022-10-30T23:04:28.639Z,11.20
2022-10-30T23:07:02.670Z,11.20
2022-10-30T23:09:36.619Z,11.10
2022-10-30T23:12:06.318Z,11.10
2022-10-30T23:14:41.652Z,11.10
2022-10-30T23:17:15.571Z,11.10
2022-10-30T23:19:50.671Z,11.10
2022-10-30T23:22:24.570Z,11.10
2022-10-30T23:25:05.991Z,11.10
2022-10-30T23:27:40.551Z,11.10
2022-10-30T23:30:16.859Z,11.10
2022-10-30T23:32:54.680Z,11.08
2022-10-30T23:35:29.690Z,11.02
2022-10-30T23:38:06.651Z,11.04
2022-10-30T23:40:44.653Z,11.00
2022-10-30T23:43:21.183Z,11.00
2022-10-30T23:45:55.670Z,11.00
2022-10-30T23:48:31.610Z,11.00
2022-10-30T23:51:06.479Z,11.10
2022-10-30T23:53:40.736Z,11.04
2022-10-30T23:56:19.480Z,11.04
2022-10-30T23:59:07.181Z,11.00
